Time;durP1;ratioP1;P1;durP2;ratioP2;P2;SDS_P1;SDS_P2;PMS_P1;PMS_P2;Temp;Humidity;BMP_temperature;BMP_pressure;BME280_temperature;BME280_humidity;BME280_pressure;Samples;Min_cycle;Max_cycle;Signal;HPM_P1;HPM_P2
2021/06/21 00:00:39;;;;;;;14.10;13.20;;;18.30;99.90;;;;;;5113299;28;20478;-70
2021/06/21 00:03:05;;;;;;;14.57;13.77;;;18.30;99.90;;;;;;5112886;28;20441;-70
2021/06/21 00:05:33;;;;;;;14.40;13.30;;;18.40;99.90;;;;;;5113196;28;20449;-70
2021/06/21 00:08:00;;;;;;;14.07;13.37;;;18.50;99.90;;;;;;5113200;28;20449;-70
2021/06/21 00:10:27;;;;;;;16.03;14.93;;;18.50;99.90;;;;;;5113141;28;20449;-70
2021/06/21 00:12:54;;;;;;;13.63;12.80;;;18.50;99.90;;;;;;5112696;28;20452;-70
2021/06/21 00:15:25;;;;;;;14.97;13.97;;;18.50;99.90;;;;;;5113034;28;20453;-71
2021/06/21 00:17:53;;;;;;;14.10;13.30;;;18.50;99.90;;;;;;5112845;28;20500;-71
2021/06/21 00:20:22;;;;;;;15.03;13.97;;;18.50;99.90;;;;;;5112515;28;20994;-71
2021/06/21 00:22:50;;;;;;;14.13;13.23;;;18.60;99.90;;;;;;5112843;28;20469;-70
2021/06/21 00:25:18;;;;;;;14.10;13.20;;;18.60;99.90;;;;;;5112854;28;20948;-71
2021/06/21 00:27:45;;;;;;;14.77;13.80;;;18.60;99.90;;;;;;5112601;28;20935;-70
2021/06/21 00:30:14;;;;;;;15.83;14.80;;;18.60;99.90;;;;;;5112833;28;20879;-71
2021/06/21 00:32:42;;;;;;;14.37;13.57;;;18.70;99.90;;;;;;5112571;28;20445;-70
2021/06/21 00:35:11;;;;;;;15.93;14.83;;;18.70;99.90;;;;;;5112346;28;20445;-70
2021/06/21 00:37:39;;;;;;;14.53;13.50;;;18.70;99.90;;;;;;5112536;28;20889;-71
2021/06/21 00:40:10;;;;;;;14.07;13.03;;;18.70;99.90;;;;;;5112422;28;20724;-71
2021/06/21 00:42:40;;;;;;;14.23;13.33;;;18.80;99.90;;;;;;5112264;28;20953;-71
2021/06/21 00:45:08;;;;;;;14.00;13.23;;;18.80;99.90;;;;;;5112676;28;20430;-71
2021/06/21 00:47:35;;;;;;;15.13;14.10;;;18.90;99.90;;;;;;5112427;28;20449;-71
2021/06/21 00:50:02;;;;;;;13.77;13.07;;;18.80;99.90;;;;;;5112077;28;20454;-71
2021/06/21 00:52:31;;;;;;;13.83;13.03;;;18.80;99.90;;;;;;5112327;28;20476;-71
2021/06/21 00:55:01;;;;;;;13.80;13.00;;;18.80;99.90;;;;;;5112273;28;20441;-70
2021/06/21 00:57:28;;;;;;;14.50;13.50;;;18.80;99.90;;;;;;5112060;28;20533;-70
2021/06/21 00:59:58;;;;;;;13.63;12.90;;;18.80;99.90;;;;;;5112179;28;20806;-70
2021/06/21 01:02:25;;;;;;;15.13;13.87;;;18.80;99.90;;;;;;5111929;28;20469;-70
2021/06/21 01:04:52;;;;;;;14.60;13.60;;;18.70;99.90;;;;;;5111798;28;20727;-71
2021/06/21 01:07:19;;;;;;;14.30;13.30;;;18.60;99.90;;;;;;5112020;28;20446;-71
2021/06/21 01:09:49;;;;;;;13.97;13.07;;;18.60;99.90;;;;;;5111883;28;20965;-70
2021/06/21 01:12:32;;;;;;;13.70;12.80;;;18.50;99.90;;;;;;5112102;28;20459;-71
2021/06/21 01:15:05;;;;;;;14.70;13.63;;;18.50;99.90;;;;;;5111756;28;20461;-71
2021/06/21 01:17:35;;;;;;;14.33;13.43;;;18.50;99.90;;;;;;5112193;28;20492;-71
2021/06/21 01:20:31;;;;;;;15.57;14.13;;;18.60;99.90;;;;;;5111633;28;20504;-71
2021/06/21 01:23:46;;;;;;;14.27;13.27;;;18.60;99.90;;;;;;5098173;28;20452;-71
2021/06/21 01:26:18;;;;;;;14.17;13.33;;;18.50;99.90;;;;;;5111564;28;20449;-75
2021/06/21 01:29:04;;;;;;;14.37;13.67;;;18.60;99.90;;;;;;5111858;28;20457;-71
2021/06/21 01:31:49;;;;;;;16.07;14.50;;;18.50;99.90;;;;;;5111737;28;20452;-72
2021/06/21 01:34:19;;;;;;;15.07;13.90;;;18.60;99.90;;;;;;5111666;28;20897;-71
2021/06/21 01:36:51;;;;;;;13.80;13.00;;;18.50;99.90;;;;;;5111281;28;21099;-72
2021/06/21 01:39:19;;;;;;;16.77;15.47;;;18.50;99.90;;;;;;5111482;28;20445;-71
2021/06/21 01:41:47;;;;;;;16.23;15.33;;;18.50;99.90;;;;;;5111517;28;20476;-70
2021/06/21 01:44:17;;;;;;;15.67;14.87;;;18.60;99.90;;;;;;5111556;28;20997;-70
2021/06/21 01:46:46;;;;;;;14.90;13.90;;;18.60;99.90;;;;;;5111587;28;20441;-71
2021/06/21 01:49:21;;;;;;;14.50;13.53;;;18.60;99.90;;;;;;5111575;28;20449;-71
2021/06/21 01:51:48;;;;;;;14.17;13.47;;;18.60;99.90;;;;;;5111596;28;20799;-72
2021/06/21 01:54:16;;;;;;;15.33;14.00;;;18.60;99.90;;;;;;5111534;28;20445;-72
2021/06/21 01:56:46;;;;;;;13.87;13.10;;;18.50;99.90;;;;;;5111419;28;20469;-71
2021/06/21 01:59:15;;;;;;;15.33;14.07;;;18.60;99.90;;;;;;5111522;28;20811;-71
2021/06/21 02:01:44;;;;;;;15.27;13.83;;;18.60;99.90;;;;;;5111144;28;20453;-71
2021/06/21 02:04:14;;;;;;;14.40;13.70;;;18.60;99.90;;;;;;5111425;28;20449;-71
2021/06/21 02:06:42;;;;;;;14.77;13.97;;;18.60;99.90;;;;;;5111111;28;20445;-72
2021/06/21 02:09:11;;;;;;;15.53;14.27;;;18.70;99.90;;;;;;5111520;28;20457;-72
2021/06/21 02:11:37;;;;;;;15.43;14.33;;;18.70;99.90;;;;;;5111166;28;20457;-72
2021/06/21 02:14:06;;;;;;;15.33;14.20;;;18.70;99.90;;;;;;5111064;28;20457;-71
2021/06/21 02:16:34;;;;;;;15.23;14.33;;;18.80;99.90;;;;;;5111044;28;20445;-73
2021/06/21 02:19:01;;;;;;;14.87;13.73;;;18.70;99.90;;;;;;5111146;28;20457;-72
2021/06/21 02:21:29;;;;;;;14.50;13.50;;;18.70;99.90;;;;;;5111197;28;20953;-71
2021/06/21 02:23:57;;;;;;;14.80;13.80;;;18.60;99.90;;;;;;5110722;28;20442;-72
2021/06/21 02:26:26;;;;;;;14.80;14.00;;;18.60;99.90;;;;;;5111448;28;20456;-72
2021/06/21 02:28:54;;;;;;;15.90;14.60;;;18.60;99.90;;;;;;5110795;28;20457;-72
2021/06/21 02:31:21;;;;;;;15.70;14.70;;;18.70;99.90;;;;;;5110913;28;20457;-72
2021/06/21 02:33:49;;;;;;;15.10;14.17;;;18.70;99.90;;;;;;5110892;28;20859;-72
2021/06/21 02:36:16;;;;;;;15.67;14.77;;;18.70;99.90;;;;;;5114228;28;20445;-72
2021/06/21 02:38:42;;;;;;;14.80;13.97;;;18.80;99.90;;;;;;5114787;28;20477;-72
2021/06/21 02:41:10;;;;;;;16.90;15.30;;;18.70;99.90;;;;;;5114620;28;20469;-72
2021/06/21 02:43:37;;;;;;;14.20;13.53;;;18.60;99.90;;;;;;5114545;28;20449;-72
2021/06/21 02:46:04;;;;;;;14.57;13.60;;;18.60;99.90;;;;;;5114862;28;20452;-71
2021/06/21 02:48:31;;;;;;;15.63;14.10;;;18.60;99.90;;;;;;5114533;28;20444;-72
2021/06/21 02:50:58;;;;;;;15.40;14.10;;;18.60;99.90;;;;;;5114753;28;20449;-71
2021/06/21 02:53:33;;;;;;;13.90;12.93;;;18.60;99.90;;;;;;5114463;28;20456;-72
2021/06/21 02:56:05;;;;;;;14.30;13.57;;;18.70;99.90;;;;;;5114632;28;20483;-72
2021/06/21 02:58:39;;;;;;;15.03;13.87;;;18.70;99.90;;;;;;5114392;28;20485;-72
2021/06/21 03:01:07;;;;;;;15.83;14.30;;;18.80;99.90;;;;;;5114110;28;20506;-72
2021/06/21 03:03:38;;;;;;;15.20;14.30;;;18.70;99.90;;;;;;5114386;28;20458;-72
2021/06/21 03:06:06;;;;;;;14.63;13.70;;;18.70;99.90;;;;;;5114818;28;20521;-72
2021/06/21 03:08:35;;;;;;;16.50;15.20;;;18.70;99.90;;;;;;5114401;28;20442;-72
2021/06/21 03:11:03;;;;;;;14.73;13.70;;;18.70;99.90;;;;;;5114332;28;20456;-71
2021/06/21 03:13:30;;;;;;;15.70;14.60;;;18.70;99.90;;;;;;5114007;28;20445;-72
2021/06/21 03:16:00;;;;;;;15.93;14.80;;;18.70;99.90;;;;;;5114260;28;20453;-72
2021/06/21 03:18:28;;;;;;;16.50;15.23;;;18.80;99.90;;;;;;5113913;28;20489;-72
2021/06/21 03:20:56;;;;;;;15.70;14.70;;;18.80;99.90;;;;;;5113784;28;20473;-72
2021/06/21 03:23:23;;;;;;;13.87;13.20;;;18.80;99.90;;;;;;5113837;28;20461;-72
2021/06/21 03:25:52;;;;;;;14.60;13.90;;;18.90;99.90;;;;;;5113862;28;20449;-72
2021/06/21 03:28:19;;;;;;;16.23;14.90;;;18.90;99.90;;;;;;5113936;28;20457;-71
2021/06/21 03:30:50;;;;;;;16.43;15.20;;;18.90;99.90;;;;;;5113998;28;20458;-71
2021/06/21 03:33:19;;;;;;;14.77;13.93;;;18.90;99.90;;;;;;5113830;28;20453;-71
2021/06/21 03:35:46;;;;;;;16.67;15.67;;;19.00;99.90;;;;;;5113713;28;20445;-70
2021/06/21 03:38:15;;;;;;;17.40;16.10;;;19.00;99.90;;;;;;5113802;28;20484;-70
2021/06/21 03:40:43;;;;;;;14.40;13.70;;;19.00;99.90;;;;;;5113707;28;20472;-69
2021/06/21 03:43:10;;;;;;;15.40;14.33;;;19.00;99.90;;;;;;5113559;28;20453;-69
2021/06/21 03:45:37;;;;;;;15.73;14.70;;;19.00;99.90;;;;;;5113504;28;20475;-69
2021/06/21 03:48:05;;;;;;;15.57;14.17;;;19.10;99.90;;;;;;5112710;28;20449;-69
2021/06/21 03:50:33;;;;;;;14.43;13.63;;;19.10;99.90;;;;;;5113443;28;20450;-69
2021/06/21 03:53:00;;;;;;;14.50;13.17;;;19.00;99.90;;;;;;5113446;28;20449;-68
2021/06/21 03:55:27;;;;;;;14.53;13.53;;;19.00;99.90;;;;;;5113325;28;20446;-69
2021/06/21 03:57:54;;;;;;;12.83;12.13;;;19.10;99.90;;;;;;5112729;28;20481;-69
2021/06/21 04:00:23;;;;;;;14.13;13.13;;;19.20;99.90;;;;;;5113397;28;20506;-69
2021/06/21 04:02:50;;;;;;;14.07;13.07;;;19.30;99.90;;;;;;5113143;28;20445;-69
2021/06/21 04:05:17;;;;;;;15.83;14.33;;;19.40;99.90;;;;;;5113237;28;20446;-69
2021/06/21 04:07:47;;;;;;;15.60;14.50;;;19.40;99.90;;;;;;5113123;28;20452;-69
2021/06/21 04:10:18;;;;;;;14.57;13.40;;;19.50;99.90;;;;;;5112839;28;20453;-69
2021/06/21 04:12:46;;;;;;;14.30;13.27;;;19.50;99.90;;;;;;5112854;28;20947;-69
2021/06/21 04:15:14;;;;;;;14.27;13.47;;;19.50;99.90;;;;;;5112906;28;20453;-69
2021/06/21 04:17:41;;;;;;;14.80;13.50;;;19.60;99.90;;;;;;5112662;28;20473;-69
2021/06/21 04:20:11;;;;;;;13.47;12.40;;;19.60;99.90;;;;;;5112335;28;20530;-69
2021/06/21 04:22:39;;;;;;;14.07;12.93;;;19.50;99.90;;;;;;5112861;28;20468;-68
2021/06/21 04:25:09;;;;;;;15.57;14.17;;;19.50;99.90;;;;;;5112697;28;20869;-69
2021/06/21 04:27:36;;;;;;;16.87;15.37;;;19.50;99.90;;;;;;5112547;28;20452;-69
2021/06/21 04:30:04;;;;;;;15.83;14.33;;;19.60;99.90;;;;;;5112426;28;20441;-69
2021/06/21 04:32:31;;;;;;;15.57;14.50;;;19.70;99.90;;;;;;5112489;28;20453;-69
2021/06/21 04:34:58;;;;;;;16.70;15.13;;;19.60;99.90;;;;;;5112902;28;20448;-69
2021/06/21 04:37:24;;;;;;;16.07;14.67;;;19.50;99.90;;;;;;5111772;28;20453;-69
2021/06/21 04:39:51;;;;;;;13.93;13.13;;;19.50;99.90;;;;;;5092178;28;20831;-69
2021/06/21 04:42:19;;;;;;;15.37;14.27;;;19.50;99.90;;;;;;5091611;28;20454;-71
2021/06/21 04:44:47;;;;;;;14.50;13.23;;;19.50;99.90;;;;;;5092235;28;20445;-71
2021/06/21 04:47:14;;;;;;;15.53;13.10;;;19.50;99.90;;;;;;5091992;28;20831;-69
2021/06/21 04:49:40;;;;;;;15.67;14.07;;;19.50;99.90;;;;;;5092037;28;20774;-68
2021/06/21 04:52:10;;;;;;;13.30;12.30;;;19.50;99.90;;;;;;5091680;28;20450;-70
2021/06/21 04:54:37;;;;;;;13.30;12.60;;;19.50;99.90;;;;;;5091855;28;20474;-69
2021/06/21 04:57:05;;;;;;;14.40;13.27;;;19.50;99.90;;;;;;5091766;28;20442;-70
2021/06/21 04:59:33;;;;;;;14.47;13.53;;;19.50;99.90;;;;;;5090616;28;20489;-69
2021/06/21 05:01:59;;;;;;;14.77;13.50;;;19.50;99.90;;;;;;5091797;28;20442;-69
2021/06/21 05:04:26;;;;;;;14.37;13.50;;;19.50;99.90;;;;;;5091510;28;20442;-70
2021/06/21 05:06:53;;;;;;;14.30;13.10;;;19.70;99.90;;;;;;5091470;28;20449;-70
2021/06/21 05:09:20;;;;;;;13.47;12.40;;;19.80;99.90;;;;;;5091641;28;20450;-70
2021/06/21 05:11:46;;;;;;;13.57;12.80;;;20.20;99.90;;;;;;5091438;28;20486;-70
2021/06/21 05:14:13;;;;;;;14.40;12.97;;;20.80;99.90;;;;;;5091508;28;20821;-71
2021/06/21 05:16:41;;;;;;;15.30;13.63;;;21.00;99.90;;;;;;5091233;28;20457;-71
2021/06/21 05:19:08;;;;;;;14.83;13.60;;;21.40;99.90;;;;;;5091228;28;20478;-70
2021/06/21 05:21:35;;;;;;;15.13;14.27;;;21.80;99.90;;;;;;5091409;28;20450;-70
2021/06/21 05:24:02;;;;;;;14.10;12.93;;;22.40;99.90;;;;;;5110160;28;20449;-70
2021/06/21 05:26:28;;;;;;;15.10;13.80;;;22.80;99.90;;;;;;5111728;28;20449;-70
2021/06/21 05:28:55;;;;;;;13.37;12.63;;;23.10;99.90;;;;;;5111286;28;20808;-69
2021/06/21 05:31:22;;;;;;;13.43;12.63;;;23.20;99.90;;;;;;5111618;28;20468;-69
2021/06/21 05:33:50;;;;;;;14.10;13.20;;;23.40;99.90;;;;;;5111549;28;20449;-68
2021/06/21 05:36:17;;;;;;;14.80;13.70;;;23.80;99.90;;;;;;5111442;28;20453;-69
2021/06/21 05:38:44;;;;;;;13.37;12.77;;;24.00;99.90;;;;;;5111325;28;20481;-70
2021/06/21 05:41:10;;;;;;;13.97;13.10;;;24.30;99.90;;;;;;5111332;28;20469;-69
2021/06/21 05:43:37;;;;;;;13.93;13.20;;;24.10;99.90;;;;;;5111417;28;20449;-69
2021/06/21 05:46:04;;;;;;;13.77;13.00;;;24.10;99.90;;;;;;5111375;28;20453;-70
2021/06/21 05:48:31;;;;;;;13.60;12.57;;;24.10;99.90;;;;;;5111484;28;20433;-69
2021/06/21 05:51:00;;;;;;;14.67;13.73;;;24.00;99.90;;;;;;5111107;28;20943;-70
2021/06/21 05:53:28;;;;;;;15.27;14.20;;;24.40;99.90;;;;;;5111501;28;20460;-69
2021/06/21 05:55:55;;;;;;;14.93;13.80;;;24.90;99.90;;;;;;5111216;28;20449;-70
2021/06/21 05:58:21;;;;;;;13.17;12.67;;;25.00;99.90;;;;;;5110895;28;20902;-69
2021/06/21 06:00:48;;;;;;;16.00;14.80;;;25.20;99.90;;;;;;5111186;28;20453;-69
2021/06/21 06:03:15;;;;;;;15.17;14.17;;;25.10;99.90;;;;;;5111337;28;20445;-70
2021/06/21 06:05:41;;;;;;;15.77;14.80;;;25.00;99.90;;;;;;5111204;28;20825;-69
2021/06/21 06:08:10;;;;;;;14.57;13.57;;;25.30;99.90;;;;;;5111404;28;20445;-69
2021/06/21 06:10:36;;;;;;;15.00;13.73;;;25.40;99.90;;;;;;5113073;28;20785;-70
2021/06/21 06:13:04;;;;;;;14.53;13.70;;;25.60;99.90;;;;;;5114937;28;20930;-69
2021/06/21 06:15:31;;;;;;;14.00;13.13;;;25.60;99.90;;;;;;5115515;28;20449;-69
2021/06/21 06:17:57;;;;;;;13.80;12.70;;;25.90;99.90;;;;;;5115167;28;20478;-69
2021/06/21 06:20:24;;;;;;;14.63;13.83;;;25.90;99.90;;;;;;5114550;28;20484;-69
2021/06/21 06:22:51;;;;;;;14.40;13.27;;;25.60;99.90;;;;;;5114777;28;20441;-69
2021/06/21 06:25:19;;;;;;;15.87;14.67;;;25.90;99.90;;;;;;5114865;28;20920;-70
2021/06/21 06:27:46;;;;;;;14.10;13.30;;;26.50;99.90;;;;;;5114957;28;20441;-71
2021/06/21 06:30:14;;;;;;;13.23;12.63;;;26.60;99.40;;;;;;5114793;28;20445;-69
2021/06/21 06:32:41;;;;;;;13.97;13.07;;;26.30;99.90;;;;;;5114811;28;20448;-70
2021/06/21 06:35:10;;;;;;;13.53;12.70;;;26.70;99.90;;;;;;5114343;28;20456;-70
2021/06/21 06:37:37;;;;;;;15.07;14.17;;;26.80;98.70;;;;;;5114739;28;20448;-72
2021/06/21 06:40:05;;;;;;;14.17;13.37;;;26.90;99.30;;;;;;5114350;28;20883;-71
2021/06/21 06:42:33;;;;;;;14.20;13.40;;;27.10;99.10;;;;;;5114497;28;20539;-70
2021/06/21 06:45:00;;;;;;;15.03;14.23;;;26.90;98.70;;;;;;5114674;28;20452;-72
2021/06/21 06:47:26;;;;;;;13.50;12.60;;;27.00;98.40;;;;;;5114542;28;20852;-72
2021/06/21 06:49:53;;;;;;;14.27;13.30;;;27.50;97.30;;;;;;5114134;28;20808;-71
2021/06/21 06:52:22;;;;;;;14.00;13.10;;;27.60;97.00;;;;;;5114029;28;20449;-71
2021/06/21 06:56:58;;;;;;;14.90;13.70;;;27.40;97.00;;;;;;5114082;28;20457;-71
2021/06/21 06:57:38;;;;;;;14.77;13.77;;;27.30;96.50;;;;;;5113987;28;20437;-71
2021/06/21 07:00:07;;;;;;;13.30;12.70;;;27.00;96.90;;;;;;5113815;28;20477;-71
2021/06/21 07:02:34;;;;;;;13.13;12.30;;;27.30;96.80;;;;;;5113973;28;20444;-71
2021/06/21 07:05:01;;;;;;;13.50;12.57;;;27.40;96.20;;;;;;5113915;28;20453;-71
2021/06/21 07:07:28;;;;;;;14.17;13.23;;;27.80;95.50;;;;;;5113980;28;20456;-71
2021/06/21 07:09:55;;;;;;;13.23;12.40;;;28.50;94.30;;;;;;5113818;28;20946;-72
2021/06/21 07:12:21;;;;;;;14.17;13.00;;;28.90;93.60;;;;;;5113716;28;20468;-72
2021/06/21 07:14:50;;;;;;;14.23;13.43;;;29.40;92.40;;;;;;5110950;28;20481;-71
2021/06/21 07:17:16;;;;;;;14.83;14.13;;;29.00;92.40;;;;;;5113609;28;20464;-71
2021/06/21 07:19:43;;;;;;;14.07;13.10;;;29.20;93.30;;;;;;5113538;28;20481;-70
2021/06/21 07:22:10;;;;;;;13.50;12.60;;;29.50;91.40;;;;;;5112608;28;20515;-71
2021/06/21 07:24:37;;;;;;;13.03;12.47;;;29.50;91.20;;;;;;5113385;28;20465;-69
2021/06/21 07:27:04;;;;;;;14.23;12.80;;;29.50;91.10;;;;;;5113332;28;20957;-69
2021/06/21 07:29:32;;;;;;;11.83;11.30;;;29.40;91.40;;;;;;5113619;28;20807;-72
2021/06/21 07:32:00;;;;;;;13.40;12.60;;;29.20;91.10;;;;;;5113074;28;20445;-70
2021/06/21 07:34:27;;;;;;;13.57;12.90;;;29.10;91.90;;;;;;5112584;28;20939;-71
2021/06/21 07:36:53;;;;;;;13.53;12.83;;;29.60;91.10;;;;;;5112899;28;20453;-72
2021/06/21 07:39:20;;;;;;;13.93;13.20;;;30.60;90.70;;;;;;5112873;28;20857;-71
2021/06/21 07:41:47;;;;;;;13.20;12.50;;;31.40;86.70;;;;;;5112792;28;20518;-71
2021/06/21 07:44:14;;;;;;;14.23;13.33;;;31.60;84.60;;;;;;5113188;28;20806;-71
2021/06/21 07:46:42;;;;;;;14.03;13.13;;;31.70;83.00;;;;;;5112975;28;20449;-71
2021/06/21 07:49:10;;;;;;;13.93;12.83;;;30.60;85.50;;;;;;5112840;28;20860;-71
2021/06/21 07:51:37;;;;;;;13.53;12.60;;;30.20;86.30;;;;;;5112762;28;20445;-71
2021/06/21 07:54:04;;;;;;;13.37;12.57;;;30.00;88.40;;;;;;5112594;28;20457;-72
2021/06/21 07:56:31;;;;;;;11.90;11.30;;;30.60;85.70;;;;;;5112734;28;20454;-71
2021/06/21 07:58:58;;;;;;;13.10;12.30;;;31.00;85.00;;;;;;5112679;28;20481;-73
2021/06/21 08:01:25;;;;;;;13.23;12.43;;;31.20;83.20;;;;;;5112481;28;20450;-70
2021/06/21 08:03:53;;;;;;;12.00;11.43;;;30.80;84.20;;;;;;5112450;28;20910;-71
2021/06/21 08:06:21;;;;;;;13.63;13.03;;;30.70;83.70;;;;;;5112386;28;21049;-71
2021/06/21 08:08:48;;;;;;;13.73;12.83;;;31.10;82.90;;;;;;5112809;28;20441;-70
2021/06/21 08:11:15;;;;;;;13.83;13.23;;;31.10;81.40;;;;;;5112555;28;20872;-70
2021/06/21 08:13:41;;;;;;;13.70;13.20;;;31.40;81.00;;;;;;5112662;28;20469;-70
2021/06/21 08:16:09;;;;;;;12.80;12.10;;;31.70;79.70;;;;;;5112523;28;20453;-71
2021/06/21 08:18:36;;;;;;;13.63;13.10;;;32.40;77.40;;;;;;5112457;28;20955;-71
2021/06/21 08:21:03;;;;;;;14.10;13.60;;;32.60;75.30;;;;;;5110272;28;20481;-71
2021/06/21 08:23:33;;;;;;;13.80;12.90;;;32.80;76.20;;;;;;5112237;28;20464;-71
2021/06/21 08:26:00;;;;;;;13.27;12.77;;;32.90;74.90;;;;;;5112299;28;20445;-71
2021/06/21 08:28:27;;;;;;;14.17;13.37;;;32.90;74.80;;;;;;5112332;28;20453;-71
2021/06/21 08:30:54;;;;;;;14.20;13.50;;;33.10;74.80;;;;;;5109571;27;20750;-71
2021/06/21 08:33:22;;;;;;;13.80;13.20;;;33.00;74.30;;;;;;5112272;28;20441;-70
2021/06/21 08:35:49;;;;;;;13.83;13.33;;;33.20;74.90;;;;;;5112248;28;20462;-71
2021/06/21 08:38:16;;;;;;;13.90;13.10;;;34.00;70.10;;;;;;5112517;28;20449;-71
2021/06/21 08:40:44;;;;;;;13.70;12.90;;;34.10;70.70;;;;;;5112352;28;20485;-71
2021/06/21 08:43:12;;;;;;;13.57;12.97;;;34.40;68.90;;;;;;5112560;28;20449;-71
2021/06/21 08:45:39;;;;;;;13.97;13.43;;;34.60;67.90;;;;;;5112270;28;20449;-71
2021/06/21 08:48:07;;;;;;;14.00;13.33;;;34.80;66.90;;;;;;5112544;28;20453;-72
2021/06/21 08:50:35;;;;;;;14.23;13.43;;;34.50;66.40;;;;;;5112319;28;20476;-71
2021/06/21 08:53:02;;;;;;;13.60;13.00;;;34.80;66.50;;;;;;5112389;28;20456;-70
2021/06/21 08:55:29;;;;;;;14.80;13.80;;;34.60;66.70;;;;;;5110420;28;20460;-70
2021/06/21 08:57:57;;;;;;;14.20;13.60;;;34.40;67.00;;;;;;5111760;28;20457;-70
2021/06/21 09:00:24;;;;;;;14.57;13.93;;;34.40;67.10;;;;;;5111546;28;20485;-71
2021/06/21 09:02:51;;;;;;;15.40;14.63;;;34.00;67.60;;;;;;5111423;28;20453;-71
2021/06/21 09:05:19;;;;;;;15.53;14.73;;;34.00;65.70;;;;;;5111785;28;20453;-70
2021/06/21 09:07:46;;;;;;;15.67;14.87;;;34.20;65.40;;;;;;5111877;28;20792;-71
2021/06/21 09:10:24;;;;;;;14.40;13.80;;;34.10;66.30;;;;;;5111849;28;20931;-70
2021/06/21 09:13:04;;;;;;;15.30;14.23;;;34.50;64.60;;;;;;5111627;28;20457;-71
2021/06/21 09:15:32;;;;;;;15.07;14.47;;;35.00;62.20;;;;;;5111777;28;20454;-71
2021/06/21 09:18:00;;;;;;;15.87;14.97;;;35.10;61.70;;;;;;5111532;28;20467;-71
2021/06/21 09:20:27;;;;;;;15.00;14.27;;;35.40;61.20;;;;;;5111121;28;21017;-71
2021/06/21 09:23:00;;;;;;;15.03;14.33;;;35.50;59.70;;;;;;5111364;28;20818;-71
2021/06/21 09:25:27;;;;;;;14.97;14.37;;;35.60;59.30;;;;;;5111406;28;20456;-71
2021/06/21 09:27:55;;;;;;;15.10;14.40;;;35.60;60.50;;;;;;5111563;28;20514;-72
2021/06/21 09:30:24;;;;;;;15.97;15.27;;;36.10;59.50;;;;;;5111199;28;20453;-71
2021/06/21 09:32:53;;;;;;;14.40;13.90;;;37.20;58.10;;;;;;5111380;28;21016;-71
2021/06/21 09:35:38;;;;;;;14.77;14.10;;;36.70;56.40;;;;;;5111427;28;20853;-71
2021/06/21 09:38:07;;;;;;;15.53;14.83;;;36.30;58.20;;;;;;5110295;28;20468;-72
2021/06/21 09:40:35;;;;;;;14.87;14.33;;;36.50;56.80;;;;;;5111163;28;20489;-72
2021/06/21 09:43:18;;;;;;;15.33;14.53;;;36.70;56.30;;;;;;5111343;28;20935;-72
2021/06/21 09:46:12;;;;;;;14.27;13.87;;;37.50;55.30;;;;;;5110949;28;20433;-71
2021/06/21 09:48:41;;;;;;;16.30;15.60;;;37.80;54.00;;;;;;5111379;28;20449;-71
2021/06/21 09:51:20;;;;;;;14.10;13.47;;;37.70;53.50;;;;;;5111180;28;20445;-72
2021/06/21 09:54:03;;;;;;;13.53;13.03;;;37.40;53.70;;;;;;5111548;28;20888;-71
2021/06/21 09:56:32;;;;;;;16.37;15.70;;;37.20;54.10;;;;;;5111230;28;20457;-71
2021/06/21 09:58:59;;;;;;;14.57;14.00;;;37.30;54.00;;;;;;5111194;28;20450;-72
2021/06/21 10:01:30;;;;;;;14.97;14.30;;;37.60;52.90;;;;;;5111249;28;20448;-71
2021/06/21 10:03:57;;;;;;;15.80;14.77;;;36.90;53.20;;;;;;5111100;28;20445;-71
2021/06/21 10:06:23;;;;;;;14.67;14.00;;;36.70;54.70;;;;;;5110896;28;20507;-71
2021/06/21 10:08:53;;;;;;;15.00;14.10;;;35.90;55.80;;;;;;5111178;28;20450;-71
2021/06/21 10:11:30;;;;;;;15.60;15.00;;;35.40;56.00;;;;;;5111033;28;20494;-71
2021/06/21 10:13:58;;;;;;;14.93;14.00;;;36.00;56.30;;;;;;5111032;28;20974;-71
2021/06/21 10:16:25;;;;;;;15.27;14.47;;;36.20;56.10;;;;;;5110727;28;20453;-71
2021/06/21 10:18:55;;;;;;;14.67;14.00;;;36.20;55.30;;;;;;5110577;28;20476;-70
2021/06/21 10:21:22;;;;;;;15.13;14.37;;;35.80;54.70;;;;;;5110721;28;20576;-71
2021/06/21 10:23:49;;;;;;;14.07;13.47;;;35.00;56.70;;;;;;5110535;28;20446;-72
2021/06/21 10:26:16;;;;;;;14.57;14.07;;;35.60;55.80;;;;;;5110535;28;20966;-71
2021/06/21 10:28:44;;;;;;;13.90;13.40;;;36.80;54.10;;;;;;5110562;28;20943;-71
2021/06/21 10:31:11;;;;;;;13.87;13.23;;;37.90;52.30;;;;;;5110607;28;20442;-72
2021/06/21 10:33:37;;;;;;;16.07;15.20;;;37.90;51.10;;;;;;5110737;28;20449;-71
2021/06/21 10:36:08;;;;;;;15.40;14.60;;;38.40;50.40;;;;;;5110468;28;20445;-72
2021/06/21 10:38:35;;;;;;;15.07;14.47;;;38.70;49.30;;;;;;5110536;28;20455;-72
2021/06/21 10:41:05;;;;;;;14.80;14.10;;;38.50;50.40;;;;;;5110449;28;20863;-71
2021/06/21 10:43:49;;;;;;;15.10;14.37;;;38.60;48.80;;;;;;5110619;28;20449;-71
2021/06/21 10:46:23;;;;;;;13.13;12.63;;;38.30;49.70;;;;;;5110587;28;20455;-71
2021/06/21 10:49:34;;;;;;;15.60;14.23;;;36.50;52.00;;;;;;5110357;28;20455;-71
2021/06/21 10:52:27;;;;;;;14.53;13.83;;;35.80;52.50;;;;;;5090091;28;20464;-71
2021/06/21 10:54:54;;;;;;;16.17;15.40;;;34.90;54.00;;;;;;5110226;28;20456;-72
2021/06/21 10:57:21;;;;;;;15.70;14.90;;;35.50;53.60;;;;;;5111951;28;20453;-71
2021/06/21 11:00:12;;;;;;;14.13;13.43;;;35.60;53.00;;;;;;5114015;28;20481;-71
2021/06/21 11:02:39;;;;;;;14.97;14.47;;;35.20;53.90;;;;;;5113914;28;20938;-71
2021/06/21 11:05:07;;;;;;;15.47;14.50;;;34.40;54.40;;;;;;5113891;28;20453;-70
2021/06/21 11:07:35;;;;;;;16.20;15.57;;;35.00;55.20;;;;;;5113646;28;20441;-71
2021/06/21 11:10:02;;;;;;;14.50;13.90;;;35.50;53.90;;;;;;5113853;28;20869;-71
2021/06/21 11:12:38;;;;;;;15.73;14.83;;;35.40;53.60;;;;;;5113950;28;20446;-70
2021/06/21 11:15:14;;;;;;;17.00;16.00;;;34.80;54.60;;;;;;5114052;28;20495;-70
2021/06/21 11:17:58;;;;;;;15.77;14.97;;;34.30;56.00;;;;;;5113735;28;20931;-70
2021/06/21 11:20:33;;;;;;;15.50;14.63;;;34.00;55.60;;;;;;5113502;28;20580;-70
2021/06/21 11:23:03;;;;;;;14.90;14.30;;;33.60;57.00;;;;;;5113794;28;20445;-70
2021/06/21 11:25:31;;;;;;;14.87;14.27;;;34.10;56.90;;;;;;5113656;28;20457;-71
2021/06/21 11:28:00;;;;;;;14.93;14.30;;;34.90;55.20;;;;;;5113673;28;20808;-71
2021/06/21 11:30:38;;;;;;;15.70;15.13;;;35.80;54.00;;;;;;5113699;28;20511;-71
2021/06/21 11:33:10;;;;;;;14.33;13.63;;;36.00;52.10;;;;;;5113454;28;20560;-71
2021/06/21 11:36:07;;;;;;;14.70;14.20;;;35.50;52.10;;;;;;5113429;28;20525;-71
2021/06/21 11:38:39;;;;;;;15.00;14.30;;;35.00;51.00;;;;;;5113268;28;20449;-71
2021/06/21 11:41:28;;;;;;;15.77;15.03;;;35.30;51.20;;;;;;5112978;28;20492;-71
2021/06/21 11:43:57;;;;;;;16.40;15.70;;;36.60;50.90;;;;;;5107414;28;20461;-71
2021/06/21 11:46:45;;;;;;;16.50;15.50;;;37.80;48.30;;;;;;5113596;28;20448;-71
2021/06/21 11:49:15;;;;;;;15.90;15.30;;;38.60;47.00;;;;;;5113467;28;20498;-71
2021/06/21 11:52:01;;;;;;;15.97;15.17;;;38.30;47.80;;;;;;5113410;28;20813;-71
2021/06/21 11:54:30;;;;;;;16.30;15.33;;;38.80;47.60;;;;;;5113513;28;20452;-70
2021/06/21 11:56:59;;;;;;;14.53;14.00;;;38.80;46.80;;;;;;5113186;28;20445;-71
2021/06/21 11:59:36;;;;;;;15.07;14.50;;;38.50;47.00;;;;;;5113311;28;20532;-71
2021/06/21 12:02:06;;;;;;;15.57;14.97;;;39.50;45.00;;;;;;5113162;28;20444;-71
2021/06/21 12:04:33;;;;;;;16.00;15.30;;;39.40;44.80;;;;;;5112990;28;20453;-71
2021/06/21 12:07:00;;;;;;;15.50;14.90;;;38.70;46.00;;;;;;5112965;28;20449;-71
2021/06/21 12:09:27;;;;;;;15.83;15.30;;;38.90;45.60;;;;;;5112456;28;20445;-71
2021/06/21 12:11:55;;;;;;;16.07;15.47;;;39.80;44.80;;;;;;5112738;28;20441;-71
2021/06/21 12:14:24;;;;;;;15.57;14.97;;;40.00;43.40;;;;;;5112787;28;20445;-70
2021/06/21 12:17:00;;;;;;;15.40;14.80;;;40.30;42.60;;;;;;5112874;28;20445;-70
2021/06/21 12:19:27;;;;;;;16.80;16.00;;;40.70;42.00;;;;;;5112743;28;20839;-70
2021/06/21 12:21:54;;;;;;;15.10;14.57;;;41.00;42.30;;;;;;5112602;28;20480;-70
2021/06/21 12:24:23;;;;;;;15.90;15.30;;;41.30;42.10;;;;;;5112523;28;20456;-70
2021/06/21 12:26:52;;;;;;;15.60;15.00;;;41.30;41.50;;;;;;5112482;28;20449;-70
2021/06/21 12:29:29;;;;;;;14.07;13.57;;;40.80;41.80;;;;;;5112338;28;20867;-70
2021/06/21 12:32:04;;;;;;;16.40;15.80;;;40.90;41.20;;;;;;5112559;28;20441;-70
2021/06/21 12:34:56;;;;;;;16.47;15.60;;;41.00;41.60;;;;;;5112176;28;20456;-70
2021/06/21 12:37:29;;;;;;;16.10;15.50;;;41.00;42.10;;;;;;5092667;28;20464;-70
2021/06/21 12:39:59;;;;;;;16.23;15.60;;;40.00;41.10;;;;;;5112157;28;20454;-70